Time;durP1;ratioP1;P1;durP2;ratioP2;P2;SDS_P1;SDS_P2;PMS_P1;PMS_P2;Temp;Humidity;BMP_temperature;BMP_pressure;BME280_temperature;BME280_humidity;BME280_pressure;Samples;Min_cycle;Max_cycle;Signal;HPM_P1;HPM_P2
2023/02/17 00:01:39;;;;;;;;;;;;;;;-142.75;100.00;77458.16;4955236;28;20023;-67
2023/02/17 00:04:05;;;;;;;17.80;7.70;;;;;;;-142.75;100.00;77464.09;4965840;28;19918;-67
2023/02/17 00:06:31;;;;;;;;;;;;;;;-142.75;100.00;77468.03;4974661;28;20097;-67
2023/02/17 00:08:57;;;;;;;19.40;7.40;;;;;;;-142.75;100.00;77483.78;4973916;28;19922;-67
2023/02/17 00:11:22;;;;;;;24.25;8.05;;;;;;;-142.75;100.00;77491.66;4974180;28;20018;-67
2023/02/17 00:13:48;;;;;;;;;;;;;;;-142.75;100.00;77475.91;4974518;28;20035;-67
2023/02/17 00:16:19;;;;;;;26.25;8.02;;;;;;;-142.75;100.00;77473.94;4953344;28;19910;-67
2023/02/17 00:18:45;;;;;;;22.10;9.32;;;;;;;-142.75;100.00;77483.78;4954527;28;20027;-67
2023/02/17 00:21:16;;;;;;;27.23;9.63;;;;;;;-142.75;100.00;77471.97;4954753;28;20484;-67
2023/02/17 00:23:42;;;;;;;29.20;10.40;;;;;;;-142.75;100.00;77481.81;4968051;28;20101;-67
2023/02/17 00:26:08;;;;;;;32.05;10.07;;;;;;;-142.75;100.00;77485.75;4954575;28;20097;-67
2023/02/17 00:28:33;;;;;;;;;;;;;;;-142.75;100.00;77485.75;4954718;28;20078;-67
2023/02/17 00:31:03;;;;;;;27.27;9.90;;;;;;;-142.75;100.00;77489.69;4961617;28;20279;-67
2023/02/17 00:33:29;;;;;;;22.85;9.23;;;;;;;-142.75;100.00;77499.53;4973597;28;20097;-67
2023/02/17 00:35:54;;;;;;;;;;;;;;;-142.75;100.00;77503.47;4955934;28;20158;-67
2023/02/17 00:38:19;;;;;;;24.55;8.57;;;;;;;-142.75;100.00;77509.38;4971717;28;19910;-67
2023/02/17 00:40:44;;;;;;;;;;;;;;;-142.75;100.00;77503.47;4974067;28;20380;-67
2023/02/17 00:43:10;;;;;;;23.67;8.45;;;;;;;-142.75;100.00;77501.50;4973471;28;20002;-67
2023/02/17 00:45:35;;;;;;;;;;;;;;;-142.75;100.00;77507.41;4973865;28;20030;-67
2023/02/17 00:48:00;;;;;;;23.58;9.20;;;;;;;-142.75;100.00;77505.44;4973302;28;19949;-67
2023/02/17 00:50:25;;;;;;;;;;;;;;;-142.75;100.00;77503.47;4968174;28;20487;-67
2023/02/17 00:52:51;;;;;;;23.60;8.70;;;;;;;-142.75;100.00;77507.41;4956143;28;20294;-67
2023/02/17 00:55:16;;;;;;;;;;;;;;;-142.75;100.00;77505.44;4973456;28;20105;-67
2023/02/17 00:57:41;;;;;;;26.90;9.10;;;;;;;-142.75;100.00;77513.31;4973153;28;19995;-67
2023/02/17 01:00:08;;;;;;;33.88;10.77;;;;;;;-142.75;100.00;77511.34;4973108;28;20038;-67
2023/02/17 01:02:33;;;;;;;25.83;8.85;;;;;;;-142.75;100.00;77521.19;4973139;28;20073;-67
2023/02/17 01:04:58;;;;;;;;;;;;;;;-142.75;100.00;77519.22;4973506;28;20070;-67
2023/02/17 01:07:24;;;;;;;26.65;9.23;;;;;;;-142.75;100.00;77521.19;4955435;28;19957;-67
2023/02/17 01:09:49;;;;;;;;;;;;;;;-142.75;100.00;77531.03;4972438;28;20371;-67
2023/02/17 01:12:14;;;;;;;27.63;10.03;;;;;;;-142.75;100.00;77531.03;4972902;28;19914;-67
2023/02/17 01:14:39;;;;;;;;;;;;;;;-142.75;100.00;77536.94;4973409;28;20678;-67
2023/02/17 01:17:05;;;;;;;22.08;8.57;;;;;;;-142.75;100.00;77531.03;4972916;28;19922;-67
2023/02/17 01:19:30;;;;;;;;;;;;;;;-142.75;100.00;77531.03;4973058;28;20033;-67
2023/02/17 01:21:55;;;;;;;27.65;8.05;;;;;;;-142.75;100.00;77538.91;4972973;28;19916;-67
2023/02/17 01:24:20;;;;;;;;;;;;;;;-142.75;100.00;77538.91;4973121;28;20029;-67
2023/02/17 01:26:45;;;;;;;31.43;8.73;;;;;;;-142.75;100.00;77540.88;4972727;28;20471;-67
2023/02/17 01:29:11;;;;;;;;;;;;;;;-142.75;100.00;77540.88;4955759;28;20030;-67
2023/02/17 01:31:38;;;;;;;24.05;7.88;;;;;;;-142.75;100.00;77544.81;4955305;28;19910;-67
2023/02/17 01:34:04;;;;;;;25.88;9.63;;;;;;;-142.75;100.00;77533.00;4972537;28;20089;-67
2023/02/17 01:36:29;;;;;;;;;;;;;;;-142.75;100.00;77529.06;4955673;28;20019;-67
2023/02/17 01:38:55;;;;;;;26.60;8.65;;;;;;;-142.75;100.00;77531.03;4972312;28;19922;-67
2023/02/17 01:41:21;;;;;;;;;;;;;;;-142.75;100.00;77519.22;4952353;28;20396;-67
2023/02/17 01:44:06;;;;;;;25.27;9.07;;;;;;;-142.75;100.00;77511.34;4953127;28;20021;-67
2023/02/17 01:46:33;;;;;;;23.67;9.40;;;;;;;-142.75;100.00;77511.34;4953083;28;20027;-67
2023/02/17 01:48:59;;;;;;;29.35;9.45;;;;;;;-142.75;100.00;77534.97;4952912;28;20031;-67
2023/02/17 01:51:33;;;;;;;27.15;10.93;;;;;;;-142.75;100.00;77525.13;4951879;28;20023;-67
2023/02/17 01:54:04;;;;;;;32.83;10.00;;;;;;;-142.75;100.00;77505.44;4953083;28;20023;-67
2023/02/17 01:56:32;;;;;;;24.63;9.38;;;;;;;-142.75;100.00;77521.19;4952819;28;20075;-67
2023/02/17 01:59:10;;;;;;;34.63;10.40;;;;;;;-142.75;100.00;77519.22;4952684;28;20113;-67
2023/02/17 02:01:36;;;;;;;25.53;8.90;;;;;;;-142.75;100.00;77529.06;4951159;28;20110;-67
2023/02/17 02:04:03;;;;;;;;;;;;;;;-142.75;100.00;77515.28;4952051;28;20067;-67
2023/02/17 02:06:30;;;;;;;30.95;10.43;;;;;;;-142.75;100.00;77521.19;4952878;28;19921;-67
2023/02/17 02:09:03;;;;;;;27.05;10.65;;;;;;;-142.75;100.00;77519.22;4952659;28;20031;-67
2023/02/17 02:11:28;;;;;;;34.50;10.63;;;;;;;-142.75;100.00;77499.53;4952849;28;20024;-67
2023/02/17 02:13:54;;;;;;;;;;;;;;;-142.75;100.00;77503.47;4953258;28;20354;-67
2023/02/17 02:16:43;;;;;;;28.15;10.68;;;;;;;-142.75;100.00;77507.41;4952730;28;19918;-67
2023/02/17 02:19:49;;;;;;;28.90;10.38;;;;;;;-142.75;100.00;77493.63;4912450;28;20031;-67
2023/02/17 02:22:14;;;;;;;34.03;10.75;;;;;;;-142.75;100.00;77499.53;4951613;28;20034;-67
2023/02/17 02:24:42;;;;;;;;;;;;;;;-142.75;100.00;77497.56;4953012;28;20027;-67
2023/02/17 02:27:32;;;;;;;32.25;10.70;;;;;;;-142.75;100.00;77501.50;4952488;28;19910;-67
2023/02/17 02:30:21;;;;;;;26.63;9.77;;;;;;;-142.75;100.00;77519.22;4952470;28;20372;-67
2023/02/17 02:33:02;;;;;;;27.15;9.35;;;;;;;-142.75;100.00;77505.44;4952684;28;20484;-67
2023/02/17 02:35:33;;;;;;;26.08;9.60;;;;;;;-142.75;100.00;77485.75;4951831;28;20034;-67
2023/02/17 02:38:05;;;;;;;27.58;8.75;;;;;;;-142.75;100.00;77491.66;4952307;28;20027;-67
2023/02/17 02:40:35;;;;;;;32.40;10.57;;;;;;;-142.75;100.00;77493.63;4952519;28;20027;-67
2023/02/17 02:43:02;;;;;;;26.00;9.43;;;;;;;-142.75;100.00;77491.66;4952489;28;20035;-67
2023/02/17 02:45:27;;;;;;;24.30;9.52;;;;;;;-142.75;100.00;77495.59;4951105;28;20106;-67
2023/02/17 02:47:53;;;;;;;;;;;;;;;-142.75;100.00;77487.72;4952833;28;20110;-67
2023/02/17 02:50:27;;;;;;;24.88;8.65;;;;;;;-142.75;100.00;77483.78;4952232;28;19945;-67
2023/02/17 02:53:09;;;;;;;22.60;8.80;;;;;;;-142.75;100.00;77487.72;4952430;28;20034;-67
2023/02/17 02:55:54;;;;;;;27.30;9.05;;;;;;;-142.75;100.00;77477.88;4954512;28;20078;-67
2023/02/17 02:58:39;;;;;;;23.05;9.10;;;;;;;-142.75;100.00;77475.91;4952124;28;20035;-67
2023/02/17 03:01:29;;;;;;;26.80;10.82;;;;;;;-142.75;100.00;77485.75;4951168;28;20020;-67
2023/02/17 03:04:10;;;;;;;30.80;11.77;;;;;;;-142.75;100.00;77470.00;4950239;28;20042;-67
2023/02/17 03:06:52;;;;;;;33.65;11.88;;;;;;;-142.75;100.00;77471.97;4950947;28;20399;-67
2023/02/17 03:09:21;;;;;;;35.42;13.13;;;;;;;-142.75;100.00;77456.22;4951945;28;20027;-67
2023/02/17 03:11:48;;;;;;;43.50;14.75;;;;;;;-142.75;100.00;77448.34;4952272;28;20049;-67
2023/02/17 03:14:16;;;;;;;40.85;15.02;;;;;;;-142.75;100.00;77428.63;4952237;28;20023;-67
2023/02/17 03:16:42;;;;;;;40.53;15.90;;;;;;;-142.75;100.00;77432.56;4952165;28;20023;-66
2023/02/17 03:19:09;;;;;;;47.35;18.35;;;;;;;-142.75;100.00;77430.59;4951947;28;20050;-67
2023/02/17 03:21:40;;;;;;;45.72;19.55;;;;;;;-142.75;100.00;77432.56;4959517;28;20376;-67
2023/02/17 03:24:06;;;;;;;49.47;18.90;;;;;;;-142.75;100.00;77410.91;4971341;28;20432;-67
2023/02/17 03:26:31;;;;;;;;;;;;;;;-142.75;100.00;77408.94;4971554;28;20058;-67
2023/02/17 03:28:56;;;;;;;42.90;18.90;;;;;;;-142.75;100.00;77401.06;4971124;28;20279;-67
2023/02/17 03:31:22;;;;;;;;;;;;;;;-142.75;100.00;77399.09;4958638;28;20054;-67
2023/02/17 03:33:47;;;;;;;47.58;18.67;;;;;;;-142.75;100.00;77403.03;4952544;28;19917;-67
2023/02/17 03:36:13;;;;;;;42.95;18.67;;;;;;;-142.75;100.00;77401.06;4955415;28;20159;-67
2023/02/17 03:38:38;;;;;;;38.78;17.67;;;;;;;-142.75;100.00;77391.22;4960813;28;20031;-67
2023/02/17 03:41:03;;;;;;;;;;;;;;;-142.75;100.00;77393.19;4957804;28;20038;-66
2023/02/17 03:43:28;;;;;;;42.53;14.82;;;;;;;-142.75;100.00;77389.25;4974555;28;19921;-67
2023/02/17 03:45:54;;;;;;;;;;;;;;;-142.75;100.00;77385.31;4975093;28;20030;-67
2023/02/17 03:48:19;;;;;;;37.10;14.00;;;;;;;-142.75;100.00;77397.13;4974372;28;19932;-67
2023/02/17 03:50:44;;;;;;;34.45;15.30;;;;;;;-142.75;100.00;77395.16;4974399;28;20026;-67
2023/02/17 03:53:10;;;;;;;;;;;;;;;-142.75;100.00;77393.19;4957469;28;20026;-67
2023/02/17 03:55:35;;;;;;;32.20;13.50;;;;;;;-142.75;100.00;77397.13;4974240;28;19910;-67
2023/02/17 03:58:00;;;;;;;;;;;;;;;-142.75;100.00;77379.41;4974678;28;20095;-67
2023/02/17 04:00:26;;;;;;;33.13;13.18;;;;;;;-142.75;100.00;77385.31;4974234;28;19964;-67
2023/02/17 04:02:51;;;;;;;30.98;13.38;;;;;;;-142.75;100.00;77393.19;4974337;28;20050;-67
2023/02/17 04:05:16;;;;;;;;;;;;;;;-142.75;100.00;77389.25;4974418;28;20424;-67
2023/02/17 04:07:42;;;;;;;29.67;12.75;;;;;;;-142.75;100.00;77391.22;4960266;28;20022;-67
2023/02/17 04:10:07;;;;;;;32.72;12.90;;;;;;;-142.75;100.00;77385.31;4954814;28;20023;-67
2023/02/17 04:12:33;;;;;;;26.13;12.25;;;;;;;-142.75;100.00;77395.16;4953432;28;20539;-67
2023/02/17 04:14:58;;;;;;;27.15;11.55;;;;;;;-142.75;100.00;77381.38;4961038;28;20037;-67
2023/02/17 04:17:23;;;;;;;32.67;13.05;;;;;;;-142.75;100.00;77387.28;4956605;28;20019;-67
2023/02/17 04:19:48;;;;;;;;;;;;;;;-142.75;100.00;77383.34;4974154;28;20117;-67
2023/02/17 04:22:14;;;;;;;29.00;13.45;;;;;;;-142.75;100.00;77389.25;4974019;28;20607;-67
2023/02/17 04:24:39;;;;;;;33.35;15.00;;;;;;;-142.75;100.00;77383.34;4956459;28;20022;-67
2023/02/17 04:27:04;;;;;;;;;;;;;;;-142.75;100.00;77365.63;4974335;28;20101;-67
2023/02/17 04:29:31;;;;;;;39.05;15.95;;;;;;;-142.75;100.00;77369.56;4956327;28;19914;-67
2023/02/17 04:31:57;;;;;;;40.50;15.57;;;;;;;-142.75;100.00;77377.44;4956511;28;20026;-67
2023/02/17 04:34:22;;;;;;;37.95;16.13;;;;;;;-142.75;100.00;77373.50;4973530;28;20046;-67
2023/02/17 04:36:47;;;;;;;;;;;;;;;-142.75;100.00;77365.63;4956690;28;20387;-67
2023/02/17 04:39:12;;;;;;;31.38;15.00;;;;;;;-142.75;100.00;77365.63;4973407;28;19975;-67
2023/02/17 04:41:38;;;;;;;36.88;16.23;;;;;;;-142.75;100.00;77363.66;4959664;28;20027;-67
2023/02/17 04:44:03;;;;;;;36.88;16.33;;;;;;;-142.75;100.00;77351.84;4952978;28;21325;-66
2023/02/17 04:46:28;;;;;;;;;;;;;;;-142.75;100.00;77338.06;4954595;28;20031;-67
2023/02/17 04:48:54;;;;;;;34.47;14.73;;;;;;;-142.75;100.00;77342.00;4954005;28;19917;-67
2023/02/17 04:51:19;;;;;;;32.25;15.43;;;;;;;-142.75;100.00;77338.06;4954125;28;20027;-67
2023/02/17 04:53:44;;;;;;;;;;;;;;;-142.75;100.00;77340.03;4953402;28;20082;-67
2023/02/17 04:56:10;;;;;;;38.20;16.40;;;;;;;-142.75;100.00;77340.03;4953893;28;19910;-67
2023/02/17 04:58:35;;;;;;;;;;;;;;;-142.75;100.00;77342.00;4954243;28;20023;-67
2023/02/17 05:01:00;;;;;;;35.30;15.93;;;;;;;-142.75;100.00;77345.94;4952685;28;20391;-67
2023/02/17 05:03:26;;;;;;;38.03;15.68;;;;;;;-142.75;100.00;77357.75;4953784;28;20059;-67
2023/02/17 05:05:51;;;;;;;43.95;16.98;;;;;;;-142.75;100.00;77359.72;4970895;28;20050;-67
2023/02/17 05:08:17;;;;;;;37.55;16.33;;;;;;;-142.75;100.00;77349.88;4960464;28;20027;-67
2023/02/17 05:10:42;;;;;;;51.25;18.45;;;;;;;-142.75;100.00;77353.81;4960563;28;20078;-67
2023/02/17 05:13:07;;;;;;;37.03;16.83;;;;;;;-142.75;100.00;77334.13;4953751;28;20074;-67
2023/02/17 05:15:33;;;;;;;37.55;15.80;;;;;;;-142.75;100.00;77342.00;4953662;28;20023;-67
2023/02/17 05:17:58;;;;;;;41.58;17.50;;;;;;;-142.75;100.00;77347.91;4953553;28;20039;-66
2023/02/17 05:20:24;;;;;;;42.58;17.92;;;;;;;-142.75;100.00;77343.97;4953528;28;20455;-67
2023/02/17 05:22:49;;;;;;;;;;;;;;;-142.75;100.00;77330.19;4954112;28;20476;-67
2023/02/17 05:25:14;;;;;;;46.70;16.95;;;;;;;-142.75;100.00;77332.16;4953370;28;19914;-67
2023/02/17 05:27:40;;;;;;;49.30;17.48;;;;;;;-142.75;100.00;77334.13;4953421;28;20027;-67
2023/02/17 05:30:05;;;;;;;44.65;17.38;;;;;;;-142.75;100.00;77314.44;4953251;28;20027;-67
2023/02/17 05:32:31;;;;;;;;;;;;;;;-142.75;100.00;77318.38;4953862;28;20027;-66
2023/02/17 05:34:56;;;;;;;41.75;16.13;;;;;;;-142.75;100.00;77318.38;4952135;28;20603;-67
2023/02/17 05:37:22;;;;;;;39.55;15.90;;;;;;;-142.75;100.00;77306.56;4953228;28;20019;-67
2023/02/17 05:39:47;;;;;;;43.83;16.45;;;;;;;-142.75;100.00;77296.72;4953100;28;20037;-66
2023/02/17 05:42:12;;;;;;;;;;;;;;;-142.75;100.00;77300.66;4953670;28;20023;-67
2023/02/17 05:44:37;;;;;;;40.65;15.25;;;;;;;-142.75;100.00;77298.69;4953227;28;19915;-67
2023/02/17 05:47:03;;;;;;;41.17;15.60;;;;;;;-142.75;100.00;77286.88;4952958;28;20027;-67
2023/02/17 05:49:29;;;;;;;34.20;14.65;;;;;;;-142.75;100.00;77288.84;4952764;28;20031;-67
2023/02/17 05:51:54;;;;;;;32.38;13.50;;;;;;;-142.75;100.00;77290.81;4953116;28;20061;-66
2023/02/17 05:54:19;;;;;;;30.02;12.98;;;;;;;-142.75;100.00;77292.78;4953160;28;20023;-66
2023/02/17 05:56:44;;;;;;;;;;;;;;;-142.75;100.00;77277.03;4987055;23;20129;-65
2023/02/17 05:59:10;;;;;;;34.65;13.13;;;;;;;-142.75;100.00;77284.91;4989621;28;19918;-64
2023/02/17 06:01:36;;;;;;;32.13;12.63;;;;;;;-142.75;100.00;77280.97;4990942;28;20053;-65
2023/02/17 06:04:02;;;;;;;30.13;11.93;;;;;;;-142.75;100.00;77277.03;4991360;28;20446;-64
2023/02/17 06:06:27;;;;;;;32.28;13.07;;;;;;;-142.75;100.00;77267.19;4991477;28;20109;-64
2023/02/17 06:08:52;;;;;;;27.45;11.68;;;;;;;-142.75;100.00;77275.06;4991196;28;20045;-65
2023/02/17 06:11:17;;;;;;;;;;;;;;;-142.75;100.00;77259.31;4992050;28;20361;-65
2023/02/17 06:13:43;;;;;;;28.08;12.30;;;;;;;-142.75;100.00;77280.97;4991424;28;19913;-65
2023/02/17 06:16:08;;;;;;;;;;;;;;;-142.75;100.00;77263.25;4992436;28;20364;-64
2023/02/17 06:18:33;;;;;;;34.00;12.38;;;;;;;-142.75;100.00;77265.22;4991046;28;19913;-64
2023/02/17 06:20:59;;;;;;;32.30;13.35;;;;;;;-142.75;100.00;77265.22;4973892;28;20081;-64
2023/02/17 06:23:25;;;;;;;31.77;12.15;;;;;;;-142.75;100.00;77255.38;4991249;28;20515;-64
2023/02/17 06:25:51;;;;;;;29.55;12.75;;;;;;;-142.75;100.00;77261.28;4991155;28;20018;-64
2023/02/17 06:28:17;;;;;;;31.70;13.27;;;;;;;-142.75;100.00;77251.44;4991027;28;20052;-64
2023/02/17 06:30:42;;;;;;;28.80;12.55;;;;;;;-142.75;100.00;77263.25;4989934;28;20019;-65
2023/02/17 06:33:07;;;;;;;27.05;12.25;;;;;;;-142.75;100.00;77267.19;4984255;28;20022;-65
2023/02/17 06:35:33;;;;;;;;;;;;;;;-142.75;100.00;77257.34;4991464;28;20022;-64
2023/02/17 06:37:58;;;;;;;31.77;13.10;;;;;;;-142.75;100.00;77247.50;4973680;28;19908;-62
2023/02/17 06:40:23;;;;;;;29.35;11.82;;;;;;;-142.75;100.00;77251.44;4991122;28;20042;-65
2023/02/17 06:42:49;;;;;;;29.95;11.38;;;;;;;-142.75;100.00;77251.44;4989707;28;20050;-65
2023/02/17 06:45:14;;;;;;;27.48;12.00;;;;;;;-142.75;100.00;77243.56;4991143;28;20030;-64
2023/02/17 06:47:39;;;;;;;;;;;;;;;-142.75;100.00;77229.78;4991331;28;20029;-65
2023/02/17 06:50:05;;;;;;;24.90;11.20;;;;;;;-142.75;100.00;77233.72;4989501;28;20367;-64
2023/02/17 06:52:31;;;;;;;26.45;10.45;;;;;;;-142.75;100.00;77235.69;4991036;28;20030;-64
2023/02/17 06:54:56;;;;;;;28.88;12.50;;;;;;;-142.75;100.00;77237.66;4991005;28;20037;-65
2023/02/17 06:57:22;;;;;;;27.80;12.18;;;;;;;-142.75;100.00;77237.66;4990701;28;20018;-65
2023/02/17 06:59:47;;;;;;;;;;;;;;;-142.75;100.00;77221.91;4973808;28;20510;-65
2023/02/17 07:02:13;;;;;;;27.17;10.57;;;;;;;-142.75;100.00;77221.91;4992255;28;19909;-65
2023/02/17 07:04:39;;;;;;;23.65;10.90;;;;;;;-142.75;100.00;77223.88;4990315;28;20491;-66
2023/02/17 07:07:04;;;;;;;24.73;11.15;;;;;;;-142.75;100.00;77219.94;4990826;28;20045;-65
2023/02/17 07:09:30;;;;;;;20.60;9.75;;;;;;;-142.75;100.00;77204.19;4993644;28;20034;-62
2023/02/17 07:11:56;;;;;;;21.85;10.52;;;;;;;-142.75;100.00;77212.06;4994843;28;20030;-65
2023/02/17 07:14:22;;;;;;;24.15;11.25;;;;;;;-142.75;100.00;77217.97;4994606;28;20018;-65
2023/02/17 07:16:47;;;;;;;20.83;10.80;;;;;;;-142.75;100.00;77212.06;4994439;28;20364;-64
2023/02/17 07:19:13;;;;;;;;;;;;;;;-142.75;100.00;77212.06;4994594;28;20029;-65
2023/02/17 07:21:38;;;;;;;27.00;11.23;;;;;;;-142.75;100.00;77225.84;4994335;28;19910;-64
2023/02/17 07:24:03;;;;;;;24.98;12.00;;;;;;;-142.75;100.00;77231.75;4993009;28;20069;-65
2023/02/17 07:26:29;;;;;;;20.90;11.30;;;;;;;-142.75;100.00;77237.66;4989402;28;20030;-65
2023/02/17 07:28:54;;;;;;;20.45;11.93;;;;;;;-142.75;100.00;77243.56;4980038;28;20057;-65
2023/02/17 07:31:19;;;;;;;22.30;11.45;;;;;;;-142.75;100.00;77245.53;4994246;28;20037;-64
2023/02/17 07:33:46;;;;;;;24.65;12.45;;;;;;;-142.75;100.00;77237.66;4992038;28;20025;-65
2023/02/17 07:36:14;;;;;;;27.02;13.07;;;;;;;-142.75;100.00;77216.00;4978216;28;20080;-65
2023/02/17 07:38:40;;;;;;;33.05;14.18;;;;;;;-142.75;100.00;77221.91;4993295;28;20085;-65
2023/02/17 07:41:10;;;;;;;29.90;13.63;;;;;;;-142.75;100.00;77227.81;4993712;28;20045;-65
2023/02/17 07:43:35;;;;;;;24.13;13.27;;;;;;;-142.75;100.00;77243.56;4993525;28;20077;-61
2023/02/17 07:46:01;;;;;;;27.50;12.63;;;;;;;-142.75;100.00;77239.63;4993648;28;20430;-65
2023/02/17 07:48:26;;;;;;;23.80;12.00;;;;;;;-142.75;100.00;77251.44;4993125;28;20026;-65
2023/02/17 07:50:52;;;;;;;19.33;11.20;;;;;;;-142.75;100.00;77239.63;4993557;28;20030;-64
2023/02/17 07:53:17;;;;;;;20.83;12.02;;;;;;;-142.75;100.00;77247.50;4993360;28;20072;-65
2023/02/17 07:55:42;;;;;;;;;;;;;;;-142.75;100.00;77231.75;4993810;28;20082;-65
2023/02/17 07:58:08;;;;;;;24.50;12.80;;;;;;;-142.75;100.00;77249.47;4975438;28;19913;-65
2023/02/17 08:00:33;;;;;;;21.95;11.48;;;;;;;-142.75;100.00;77255.38;4993467;28;20089;-65
2023/02/17 08:02:58;;;;;;;28.08;13.30;;;;;;;-142.75;100.00;77267.19;4993137;28;20030;-65
2023/02/17 08:05:23;;;;;;;;;;;;;;;-142.75;100.00;77253.41;4993636;28;20057;-65
2023/02/17 08:13:17;;;;;;;23.63;11.93;;;;;;;-142.75;100.00;77259.31;4993230;28;19918;-65
2023/02/17 08:13:20;;;;;;;20.03;11.63;;;;;;;-142.75;100.00;77271.13;4993529;28;20045;-66
2023/02/17 08:15:45;;;;;;;;;;;;;;;-142.75;100.00;77277.03;4993866;28;20658;-66
2023/02/17 08:18:11;;;;;;;23.77;11.35;;;;;;;-142.75;100.00;77282.94;4991629;28;20278;-65
2023/02/17 08:20:37;;;;;;;;;;;;;;;-142.75;100.00;77282.94;4993228;28;20471;-66
2023/02/17 08:23:02;;;;;;;22.10;10.70;;;;;;;-142.75;100.00;77275.06;4992953;28;19916;-65
2023/02/17 08:25:30;;;;;;;;;;;;;;;-142.75;100.00;77257.34;4993352;28;20026;-65
2023/02/17 08:27:55;;;;;;;18.92;10.40;;;;;;;-142.75;100.00;77275.06;4975221;28;19939;-65
2023/02/17 08:30:20;;;;;;;26.48;12.15;;;;;;;-142.75;100.00;77273.09;4993673;28;21361;-64
2023/02/17 08:32:46;;;;;;;22.88;11.13;;;;;;;-142.75;100.00;77279.00;4975289;28;20019;-66
2023/02/17 08:35:12;;;;;;;22.27;11.15;;;;;;;-142.75;100.00;77265.22;4992805;28;20419;-66
2023/02/17 08:37:37;;;;;;;;;;;;;;;-142.75;100.00;77261.28;4994011;28;20101;-65
2023/02/17 08:40:03;;;;;;;23.50;10.93;;;;;;;-142.75;100.00;77267.19;4975023;28;19909;-66
2023/02/17 08:42:30;;;;;;;20.20;10.63;;;;;;;-142.75;100.00;77265.22;4992513;28;20391;-65
2023/02/17 08:44:56;;;;;;;18.40;10.52;;;;;;;-142.75;100.00;77271.13;4975359;28;20033;-67
2023/02/17 08:47:21;;;;;;;21.40;10.88;;;;;;;-142.75;100.00;77275.06;4992809;28;20030;-66
2023/02/17 08:49:46;;;;;;;18.20;9.20;;;;;;;-142.75;100.00;77263.25;4992647;28;20479;-65
2023/02/17 08:52:12;;;;;;;23.48;9.90;;;;;;;-142.75;100.00;77267.19;4992761;28;20026;-65
2023/02/17 08:54:37;;;;;;;18.27;8.35;;;;;;;-142.75;100.00;77279.00;4992769;28;20523;-66
2023/02/17 08:57:02;;;;;;;19.77;9.13;;;;;;;-142.75;100.00;77271.13;4992420;28;20469;-65
2023/02/17 08:59:28;;;;;;;;;;;;;;;-142.75;100.00;77249.47;4992877;28;20666;-66
2023/02/17 09:01:54;;;;;;;16.63;8.57;;;;;;;-142.75;100.00;77279.00;4992708;28;19910;-65
2023/02/17 09:04:19;;;;;;;19.92;9.88;;;;;;;-142.75;100.00;77265.22;4992419;28;20034;-66
2023/02/17 09:06:49;;;;;;;20.30;9.02;;;;;;;-142.75;100.00;77265.22;4992464;28;20018;-66
2023/02/17 09:09:17;;;;;;;17.67;9.13;;;;;;;-142.75;100.00;77267.19;4992192;28;20438;-65
2023/02/17 09:11:44;;;;;;;19.40;9.55;;;;;;;-142.75;100.00;77267.19;4991313;28;20026;-65
2023/02/17 09:14:09;;;;;;;20.55;10.57;;;;;;;-142.75;100.00;77269.16;4992434;28;20466;-65
2023/02/17 09:16:35;;;;;;;23.60;10.73;;;;;;;-142.75;100.00;77294.75;4992284;28;20037;-66
2023/02/17 09:19:00;;;;;;;18.63;9.70;;;;;;;-142.75;100.00;77294.75;4984491;28;20037;-65
2023/02/17 09:21:26;;;;;;;19.77;8.90;;;;;;;-142.75;100.00;77302.63;4991023;28;20026;-66
2023/02/17 09:23:52;;;;;;;;;;;;;;;-142.75;100.00;77306.56;4992686;28;20660;-66
2023/02/17 09:26:19;;;;;;;17.10;7.80;;;;;;;-142.75;100.00;77308.53;4992569;28;19945;-66
2023/02/17 09:28:45;;;;;;;18.40;7.07;;;;;;;-142.75;100.00;77324.28;4992007;28;20026;-67
2023/02/17 09:31:12;;;;;;;18.40;7.10;;;;;;;-142.75;100.00;77294.75;4989952;28;20395;-66
2023/02/17 09:33:39;;;;;;;15.52;6.95;;;;;;;-142.75;100.00;77312.47;4992153;28;20165;-66
2023/02/17 09:36:09;;;;;;;11.23;5.30;;;;;;;-142.75;100.00;77294.75;4991978;28;20025;-66
2023/02/17 09:38:37;;;;;;;14.82;5.95;;;;;;;-142.75;100.00;77286.88;4990385;28;20074;-66
2023/02/17 09:41:25;;;;;;;15.93;7.10;;;;;;;-142.75;100.00;77282.94;4991945;28;20045;-67
2023/02/17 09:43:53;;;;;;;14.93;6.88;;;;;;;-142.75;100.00;77294.75;4991900;28;20033;-64
2023/02/17 09:46:35;;;;;;;17.02;6.72;;;;;;;-142.75;100.00;77280.97;4991735;28;20089;-66
2023/02/17 09:49:14;;;;;;;13.90;6.45;;;;;;;-142.75;100.00;77280.97;4990458;28;20026;-62
2023/02/17 09:51:43;;;;;;;16.80;6.65;;;;;;;-142.75;100.00;77280.97;4992241;28;20117;-66
2023/02/17 09:54:20;;;;;;;17.85;6.65;;;;;;;-142.75;100.00;77253.41;4990266;28;20038;-67
2023/02/17 09:56:50;;;;;;;16.20;6.53;;;;;;;-142.75;100.00;77251.44;4991694;28;20018;-66
2023/02/17 09:59:18;;;;;;;17.33;7.32;;;;;;;-142.75;100.00;77265.22;4990404;28;20033;-66
2023/02/17 10:01:46;;;;;;;15.98;7.15;;;;;;;-142.75;100.00;77267.19;4989497;28;20030;-66
2023/02/17 10:04:22;;;;;;;16.95;7.40;;;;;;;-142.75;100.00;77286.88;4990134;28;20030;-67
2023/02/17 10:06:53;;;;;;;14.15;7.18;;;;;;;-142.75;100.00;77286.88;4974024;28;20026;-66
2023/02/17 10:09:28;;;;;;;15.75;7.30;;;;;;;-142.75;100.00;77282.94;4973879;28;20030;-68
2023/02/17 10:12:02;;;;;;;14.48;8.20;;;;;;;-142.75;100.00;77277.03;4974021;28;20487;-67
2023/02/17 10:14:46;;;;;;;16.30;7.55;;;;;;;-142.75;100.00;77269.16;4976170;28;20025;-67
2023/02/17 10:17:36;;;;;;;14.70;6.93;;;;;;;-142.75;100.00;77282.94;4983383;28;20462;-65
2023/02/17 10:20:09;;;;;;;12.63;6.13;;;;;;;-142.75;100.00;77275.06;4973795;28;20475;-66
2023/02/17 10:22:35;;;;;;;12.77;6.13;;;;;;;-142.75;100.00;77296.72;4991289;28;20026;-67
2023/02/17 10:25:12;;;;;;;13.68;6.47;;;;;;;-142.75;100.00;77302.63;4991216;28;20510;-67
2023/02/17 10:27:58;;;;;;;13.02;6.65;;;;;;;-142.75;100.00;77310.50;4991252;28;20042;-66
2023/02/17 10:30:39;;;;;;;13.98;6.13;;;;;;;-142.75;100.00;77286.88;4990016;28;20045;-66
2023/02/17 10:33:24;;;;;;;12.95;5.88;;;;;;;-142.75;100.00;77288.84;4991285;28;20034;-68
2023/02/17 10:35:52;;;;;;;12.43;6.55;;;;;;;-142.75;100.00;77306.56;4973692;28;20060;-66
2023/02/17 10:38:32;;;;;;;12.15;6.30;;;;;;;-142.75;100.00;77292.78;4973478;28;20022;-67
2023/02/17 10:41:00;;;;;;;15.38;6.45;;;;;;;-142.75;100.00;77290.81;4991200;28;20034;-67
2023/02/17 10:43:30;;;;;;;20.02;7.50;;;;;;;-142.75;100.00;77310.50;4994139;28;20014;-67
2023/02/17 10:45:56;;;;;;;15.82;6.90;;;;;;;-142.75;100.00;77296.72;4977708;28;20042;-67
2023/02/17 10:48:31;;;;;;;14.63;7.47;;;;;;;-142.75;100.00;77302.63;4994772;28;20037;-67
2023/02/17 10:50:59;;;;;;;16.50;7.53;;;;;;;-142.75;100.00;77306.56;4988620;28;20030;-67
2023/02/17 10:53:30;;;;;;;15.43;7.13;;;;;;;-142.75;100.00;77326.25;4995107;28;20034;-66
2023/02/17 10:56:14;;;;;;;16.13;6.18;;;;;;;-142.75;100.00;77310.50;4994787;28;20494;-67
2023/02/17 10:58:45;;;;;;;14.30;6.88;;;;;;;-142.75;100.00;77306.56;4994622;28;20097;-67
2023/02/17 11:01:11;;;;;;;16.08;6.78;;;;;;;-142.75;100.00;77306.56;4994994;28;20018;-67
2023/02/17 11:03:39;;;;;;;10.88;5.72;;;;;;;-142.75;100.00;77338.06;4994774;28;20464;-67
2023/02/17 11:06:22;;;;;;;18.45;5.82;;;;;;;-142.75;100.00;77334.13;4994743;28;20019;-67
2023/02/17 11:08:47;;;;;;;13.85;5.10;;;;;;;-142.75;100.00;77351.84;4994574;28;20025;-67
2023/02/17 11:11:15;;;;;;;11.05;4.88;;;;;;;-142.75;100.00;77343.97;4994754;28;20479;-67
2023/02/17 11:13:45;;;;;;;10.88;4.22;;;;;;;-142.75;100.00;77347.91;4993350;28;20033;-67
2023/02/17 11:16:36;;;;;;;13.40;4.70;;;;;;;-142.75;100.00;77328.22;4993378;28;20022;-66
2023/02/17 11:19:03;;;;;;;15.10;4.28;;;;;;;-142.75;100.00;77330.19;4993141;28;20022;-67